sensor_id;sensor_type;location;lat;lon;timestamp;pressure;altitude;pressure_sealevel;temperature;humidity
77110;BME280;66062;52.464;16.922;2023-07-13T00:00:34;100181.41;;;19.35;60.52
77110;BME280;66062;52.464;16.922;2023-07-13T00:03:01;100185.56;;;19.31;61.02
77110;BME280;66062;52.464;16.922;2023-07-13T00:05:27;100191.38;;;19.21;61.66
77110;BME280;66062;52.464;16.922;2023-07-13T00:07:53;100191.16;;;19.16;62.54
77110;BME280;66062;52.464;16.922;2023-07-13T00:10:20;100200.34;;;19.22;61.67
77110;BME280;66062;52.464;16.922;2023-07-13T00:12:45;100198.06;;;19.32;60.42
77110;BME280;66062;52.464;16.922;2023-07-13T00:15:14;100193.75;;;19.44;59.45
77110;BME280;66062;52.464;16.922;2023-07-13T00:17:41;100199.56;;;19.54;58.42
77110;BME280;66062;52.464;16.922;2023-07-13T00:20:10;100206.44;;;19.70;58.57
77110;BME280;66062;52.464;16.922;2023-07-13T00:22:36;100214.56;;;19.77;58.84
77110;BME280;66062;52.464;16.922;2023-07-13T00:25:02;100215.81;;;19.68;58.72
77110;BME280;66062;52.464;16.922;2023-07-13T00:27:27;100218.94;;;19.71;58.19
77110;BME280;66062;52.464;16.922;2023-07-13T00:29:55;100230.19;;;19.68;58.03
77110;BME280;66062;52.464;16.922;2023-07-13T00:32:20;100235.16;;;19.71;57.75
77110;BME280;66062;52.464;16.922;2023-07-13T00:34:46;100224.13;;;19.66;58.32
77110;BME280;66062;52.464;16.922;2023-07-13T00:37:12;100217.47;;;19.69;57.79
77110;BME280;66062;52.464;16.922;2023-07-13T00:39:37;100223.13;;;19.60;58.49
77110;BME280;66062;52.464;16.922;2023-07-13T00:42:05;100204.16;;;19.54;58.54
77110;BME280;66062;52.464;16.922;2023-07-13T00:44:30;100202.69;;;19.51;58.87
77110;BME280;66062;52.464;16.922;2023-07-13T00:46:56;100212.69;;;19.44;58.62
77110;BME280;66062;52.464;16.922;2023-07-13T00:49:25;100203.53;;;19.45;60.13
77110;BME280;66062;52.464;16.922;2023-07-13T00:52:06;100204.94;;;19.41;59.47
77110;BME280;66062;52.464;16.922;2023-07-13T00:54:38;100209.56;;;19.47;59.68
77110;BME280;66062;52.464;16.922;2023-07-13T00:57:09;100202.66;;;19.38;59.94
77110;BME280;66062;52.464;16.922;2023-07-13T00:59:38;100198.91;;;19.39;60.45
77110;BME280;66062;52.464;16.922;2023-07-13T01:02:05;100192.03;;;19.23;61.31
77110;BME280;66062;52.464;16.922;2023-07-13T01:04:31;100187.03;;;19.27;62.86
77110;BME280;66062;52.464;16.922;2023-07-13T01:06:57;100200.06;;;18.91;62.70
77110;BME280;66062;52.464;16.922;2023-07-13T01:09:23;100200.06;;;18.84;62.90
77110;BME280;66062;52.464;16.922;2023-07-13T01:11:48;100208.59;;;18.88;62.54
77110;BME280;66062;52.464;16.922;2023-07-13T01:14:15;100217.53;;;18.95;63.13
77110;BME280;66062;52.464;16.922;2023-07-13T01:16:42;100216.53;;;19.02;63.04
77110;BME280;66062;52.464;16.922;2023-07-13T01:21:52;100214.25;;;19.06;62.34
77110;BME280;66062;52.464;16.922;2023-07-13T01:24:17;100207.22;;;19.18;62.10
77110;BME280;66062;52.464;16.922;2023-07-13T01:26:43;100213.44;;;19.18;65.12
77110;BME280;66062;52.464;16.922;2023-07-13T01:29:08;100219.47;;;19.14;65.07
77110;BME280;66062;52.464;16.922;2023-07-13T01:31:33;100217.97;;;19.05;64.77
77110;BME280;66062;52.464;16.922;2023-07-13T01:33:59;100218.19;;;18.97;66.03
77110;BME280;66062;52.464;16.922;2023-07-13T01:36:24;100224.22;;;19.05;63.41
77110;BME280;66062;52.464;16.922;2023-07-13T01:38:50;100214.69;;;19.16;62.53
77110;BME280;66062;52.464;16.922;2023-07-13T01:41:15;100213.88;;;19.22;62.08
77110;BME280;66062;52.464;16.922;2023-07-13T01:43:41;100220.94;;;19.23;62.54
77110;BME280;66062;52.464;16.922;2023-07-13T01:46:06;100210.09;;;19.16;62.90
77110;BME280;66062;52.464;16.922;2023-07-13T01:48:32;100215.53;;;19.16;62.66
77110;BME280;66062;52.464;16.922;2023-07-13T01:50:57;100208.03;;;19.25;62.88
77110;BME280;66062;52.464;16.922;2023-07-13T01:53:22;100211.34;;;19.20;64.01
77110;BME280;66062;52.464;16.922;2023-07-13T01:55:48;100207.81;;;19.13;64.87
77110;BME280;66062;52.464;16.922;2023-07-13T01:58:13;100193.84;;;19.10;64.74
77110;BME280;66062;52.464;16.922;2023-07-13T02:00:39;100197.41;;;19.10;65.16
77110;BME280;66062;52.464;16.922;2023-07-13T02:03:04;100198.59;;;18.88;66.78
77110;BME280;66062;52.464;16.922;2023-07-13T02:05:30;100200.28;;;18.89;66.12
77110;BME280;66062;52.464;16.922;2023-07-13T02:07:55;100190.25;;;18.76;67.84
77110;BME280;66062;52.464;16.922;2023-07-13T02:10:20;100190.88;;;18.78;67.77
77110;BME280;66062;52.464;16.922;2023-07-13T02:12:48;100186.72;;;18.83;67.90
77110;BME280;66062;52.464;16.922;2023-07-13T02:15:14;100186.31;;;18.86;68.27
77110;BME280;66062;52.464;16.922;2023-07-13T02:17:40;100197.13;;;18.86;69.25
77110;BME280;66062;52.464;16.922;2023-07-13T02:20:06;100201.50;;;18.87;69.79
77110;BME280;66062;52.464;16.922;2023-07-13T02:22:32;100199.63;;;18.87;70.87
77110;BME280;66062;52.464;16.922;2023-07-13T02:24:57;100198.78;;;18.80;71.84
77110;BME280;66062;52.464;16.922;2023-07-13T02:27:23;100199.41;;;18.82;72.80
77110;BME280;66062;52.464;16.922;2023-07-13T02:29:48;100207.38;;;18.97;73.02
77110;BME280;66062;52.464;16.922;2023-07-13T02:32:16;100211.91;;;18.83;73.89
77110;BME280;66062;52.464;16.922;2023-07-13T02:34:42;100208.75;;;18.79;74.38
77110;BME280;66062;52.464;16.922;2023-07-13T02:37:07;100209.59;;;18.80;74.67
77110;BME280;66062;52.464;16.922;2023-07-13T02:39:32;100211.69;;;18.78;74.97
77110;BME280;66062;52.464;16.922;2023-07-13T02:41:59;100216.06;;;18.79;75.29
77110;BME280;66062;52.464;16.922;2023-07-13T02:44:25;100211.25;;;18.81;75.61
77110;BME280;66062;52.464;16.922;2023-07-13T02:46:51;100212.28;;;18.80;76.41
77110;BME280;66062;52.464;16.922;2023-07-13T02:49:16;100215.22;;;18.78;76.88
77110;BME280;66062;52.464;16.922;2023-07-13T02:51:42;100213.13;;;18.80;76.83
77110;BME280;66062;52.464;16.922;2023-07-13T02:54:08;100223.75;;;18.82;77.32
77110;BME280;66062;52.464;16.922;2023-07-13T02:56:34;100222.50;;;18.85;77.79
77110;BME280;66062;52.464;16.922;2023-07-13T02:58:59;100229.19;;;18.89;78.32
77110;BME280;66062;52.464;16.922;2023-07-13T03:01:25;100228.31;;;18.82;79.02
77110;BME280;66062;52.464;16.922;2023-07-13T03:03:52;100233.72;;;18.82;79.64
77110;BME280;66062;52.464;16.922;2023-07-13T03:06:18;100229.91;;;18.63;79.92
77110;BME280;66062;52.464;16.922;2023-07-13T03:08:44;100225.97;;;18.31;82.17
77110;BME280;66062;52.464;16.922;2023-07-13T03:11:18;100220.75;;;18.23;83.24
77110;BME280;66062;52.464;16.922;2023-07-13T03:13:44;100228.81;;;18.16;83.67
77110;BME280;66062;52.464;16.922;2023-07-13T03:16:11;100230.47;;;18.17;85.85
77110;BME280;66062;52.464;16.922;2023-07-13T03:18:38;100226.28;;;18.15;85.18
77110;BME280;66062;52.464;16.922;2023-07-13T03:21:04;100220.88;;;18.15;86.09
77110;BME280;66062;52.464;16.922;2023-07-13T03:23:30;100220.03;;;18.08;86.87
77110;BME280;66062;52.464;16.922;2023-07-13T03:26:08;100212.41;;;18.18;87.11
77110;BME280;66062;52.464;16.922;2023-07-13T03:28:35;100221.31;;;18.12;87.15
77110;BME280;66062;52.464;16.922;2023-07-13T03:31:03;100230.13;;;18.27;87.50
77110;BME280;66062;52.464;16.922;2023-07-13T03:33:30;100234.16;;;18.44;86.88
77110;BME280;66062;52.464;16.922;2023-07-13T03:35:56;100217.03;;;18.65;86.28
77110;BME280;66062;52.464;16.922;2023-07-13T03:38:21;100211.06;;;18.83;85.55
77110;BME280;66062;52.464;16.922;2023-07-13T03:40:47;100215.44;;;18.84;85.82
77110;BME280;66062;52.464;16.922;2023-07-13T03:43:12;100217.44;;;18.62;87.10
77110;BME280;66062;52.464;16.922;2023-07-13T03:45:38;100211.66;;;18.71;86.83
77110;BME280;66062;52.464;16.922;2023-07-13T03:48:04;100216.25;;;18.77;86.88
77110;BME280;66062;52.464;16.922;2023-07-13T03:50:30;100227.91;;;18.85;86.52
77110;BME280;66062;52.464;16.922;2023-07-13T03:52:57;100239.19;;;18.95;86.41
77110;BME280;66062;52.464;16.922;2023-07-13T03:55:23;100234.38;;;18.84;88.25
77110;BME280;66062;52.464;16.922;2023-07-13T03:57:57;100242.66;;;18.75;89.59
77110;BME280;66062;52.464;16.922;2023-07-13T04:00:23;100255.38;;;18.82;89.83
77110;BME280;66062;52.464;16.922;2023-07-13T04:02:49;100255.31;;;18.75;90.51
77110;BME280;66062;52.464;16.922;2023-07-13T04:05:15;100251.88;;;18.53;92.53
77110;BME280;66062;52.464;16.922;2023-07-13T04:07:43;100259.13;;;18.46;93.68
77110;BME280;66062;52.464;16.922;2023-07-13T04:10:08;100259.25;;;18.31;96.26
77110;BME280;66062;52.464;16.922;2023-07-13T04:12:36;100265.66;;;18.30;96.24
77110;BME280;66062;52.464;16.922;2023-07-13T04:15:01;100262.84;;;18.45;95.64
77110;BME280;66062;52.464;16.922;2023-07-13T04:17:26;100263.56;;;18.54;94.14
77110;BME280;66062;52.464;16.922;2023-07-13T04:19:52;100259.91;;;18.40;95.70
77110;BME280;66062;52.464;16.922;2023-07-13T04:22:17;100251.94;;;18.60;93.79
77110;BME280;66062;52.464;16.922;2023-07-13T04:24:43;100256.50;;;18.59;94.16
77110;BME280;66062;52.464;16.922;2023-07-13T04:27:09;100250.34;;;18.72;94.76
77110;BME280;66062;52.464;16.922;2023-07-13T04:29:39;100260.34;;;18.85;93.59
77110;BME280;66062;52.464;16.922;2023-07-13T04:32:04;100259.16;;;18.94;91.94
77110;BME280;66062;52.464;16.922;2023-07-13T04:34:30;100265.06;;;19.17;88.89
77110;BME280;66062;52.464;16.922;2023-07-13T04:36:56;100276.31;;;19.14;89.13
77110;BME280;66062;52.464;16.922;2023-07-13T04:39:21;100267.69;;;18.97;90.66
77110;BME280;66062;52.464;16.922;2023-07-13T04:41:47;100271.78;;;19.34;89.03
77110;BME280;66062;52.464;16.922;2023-07-13T04:44:12;100274.03;;;19.24;89.89
77110;BME280;66062;52.464;16.922;2023-07-13T04:46:37;100265.06;;;19.17;90.14
77110;BME280;66062;52.464;16.922;2023-07-13T04:49:03;100275.84;;;19.10;91.52
77110;BME280;66062;52.464;16.922;2023-07-13T04:51:32;100277.75;;;19.16;91.56
77110;BME280;66062;52.464;16.922;2023-07-13T04:53:57;100272.53;;;19.15;91.88
77110;BME280;66062;52.464;16.922;2023-07-13T04:56:22;100267.03;;;19.56;89.19
77110;BME280;66062;52.464;16.922;2023-07-13T04:58:48;100263.25;;;19.44;89.96
77110;BME280;66062;52.464;16.922;2023-07-13T05:01:13;100262.47;;;18.96;92.94
77110;BME280;66062;52.464;16.922;2023-07-13T05:03:39;100277.72;;;19.03;93.02
77110;BME280;66062;52.464;16.922;2023-07-13T05:06:06;100278.31;;;18.99;92.87
77110;BME280;66062;52.464;16.922;2023-07-13T05:08:33;100288.34;;;19.11;92.60
77110;BME280;66062;52.464;16.922;2023-07-13T05:11:03;100286.66;;;19.04;92.43
77110;BME280;66062;52.464;16.922;2023-07-13T05:13:29;100289.16;;;18.99;92.74
77110;BME280;66062;52.464;16.922;2023-07-13T05:15:57;100289.59;;;19.15;92.94
77110;BME280;66062;52.464;16.922;2023-07-13T05:18:23;100297.94;;;19.14;92.31
77110;BME280;66062;52.464;16.922;2023-07-13T05:20:58;100298.19;;;19.32;91.90
77110;BME280;66062;52.464;16.922;2023-07-13T05:23:24;100300.69;;;19.40;90.98
77110;BME280;66062;52.464;16.922;2023-07-13T05:25:49;100299.25;;;19.38;90.97
77110;BME280;66062;52.464;16.922;2023-07-13T05:28:15;100301.09;;;19.24;91.94
77110;BME280;66062;52.464;16.922;2023-07-13T05:30:45;100308.41;;;19.37;91.63
77110;BME280;66062;52.464;16.922;2023-07-13T05:33:11;100309.53;;;19.49;90.43
77110;BME280;66062;52.464;16.922;2023-07-13T05:35:37;100307.03;;;19.67;89.20
77110;BME280;66062;52.464;16.922;2023-07-13T05:38:02;100312.25;;;19.82;86.98
77110;BME280;66062;52.464;16.922;2023-07-13T05:40:28;100317.88;;;19.74;87.28
77110;BME280;66062;52.464;16.922;2023-07-13T05:42:53;100315.59;;;19.77;87.19
77110;BME280;66062;52.464;16.922;2023-07-13T05:45:18;100312.25;;;19.82;86.69
77110;BME280;66062;52.464;16.922;2023-07-13T05:47:44;100317.69;;;19.82;86.37
77110;BME280;66062;52.464;16.922;2023-07-13T05:50:09;100318.97;;;19.86;85.56
77110;BME280;66062;52.464;16.922;2023-07-13T05:52:35;100333.09;;;19.75;85.39
77110;BME280;66062;52.464;16.922;2023-07-13T05:55:00;100328.47;;;19.62;86.19
77110;BME280;66062;52.464;16.922;2023-07-13T05:57:26;100344.75;;;19.55;86.97
77110;BME280;66062;52.464;16.922;2023-07-13T05:59:51;100347.56;;;19.41;87.55
77110;BME280;66062;52.464;16.922;2023-07-13T06:02:16;100351.34;;;19.46;87.17
77110;BME280;66062;52.464;16.922;2023-07-13T06:04:42;100355.78;;;19.60;86.18
77110;BME280;66062;52.464;16.922;2023-07-13T06:07:07;100354.50;;;19.56;86.55
77110;BME280;66062;52.464;16.922;2023-07-13T06:09:33;100359.53;;;19.59;86.61
77110;BME280;66062;52.464;16.922;2023-07-13T06:11:59;100364.53;;;19.62;86.49
77110;BME280;66062;52.464;16.922;2023-07-13T06:14:24;100368.91;;;19.63;87.67
77110;BME280;66062;52.464;16.922;2023-07-13T06:16:50;100368.50;;;19.73;86.41
77110;BME280;66062;52.464;16.922;2023-07-13T06:19:15;100368.06;;;19.63;87.09
77110;BME280;66062;52.464;16.922;2023-07-13T06:21:41;100371.84;;;19.69;85.91
77110;BME280;66062;52.464;16.922;2023-07-13T06:24:06;100382.47;;;19.77;86.61
77110;BME280;66062;52.464;16.922;2023-07-13T06:26:32;100378.34;;;20.07;83.18
77110;BME280;66062;52.464;16.922;2023-07-13T06:28:57;100377.34;;;20.21;82.84
77110;BME280;66062;52.464;16.922;2023-07-13T06:31:22;100382.34;;;20.37;82.58
77110;BME280;66062;52.464;16.922;2023-07-13T06:33:48;100380.03;;;20.54;81.46
77110;BME280;66062;52.464;16.922;2023-07-13T06:36:14;100386.91;;;20.76;80.91
77110;BME280;66062;52.464;16.922;2023-07-13T06:38:39;100374.97;;;20.90;79.99
77110;BME280;66062;52.464;16.922;2023-07-13T06:41:06;100378.94;;;20.95;79.31
77110;BME280;66062;52.464;16.922;2023-07-13T06:43:32;100376.38;;;21.13;78.34
77110;BME280;66062;52.464;16.922;2023-07-13T06:45:57;100380.75;;;21.27;77.16
77110;BME280;66062;52.464;16.922;2023-07-13T06:48:23;100382.56;;;21.40;76.30
77110;BME280;66062;52.464;16.922;2023-07-13T06:50:50;100380.56;;;21.60;76.13
77110;BME280;66062;52.464;16.922;2023-07-13T06:53:18;100391.72;;;21.45;76.98
77110;BME280;66062;52.464;16.922;2023-07-13T06:55:44;100379.00;;;21.77;75.77
77110;BME280;66062;52.464;16.922;2023-07-13T06:58:10;100382.13;;;21.43;76.36
77110;BME280;66062;52.464;16.922;2023-07-13T07:00:35;100385.81;;;21.55;76.15
77110;BME280;66062;52.464;16.922;2023-07-13T07:03:01;100386.84;;;21.98;74.36
77110;BME280;66062;52.464;16.922;2023-07-13T07:05:26;100382.28;;;22.24;73.56
77110;BME280;66062;52.464;16.922;2023-07-13T07:07:53;100378.38;;;24.02;65.95
77110;BME280;66062;52.464;16.922;2023-07-13T07:10:19;100377.31;;;25.99;56.89
77110;BME280;66062;52.464;16.922;2023-07-13T07:12:45;100386.06;;;27.40;52.28
77110;BME280;66062;52.464;16.922;2023-07-13T07:15:11;100380.25;;;28.38;48.07
77110;BME280;66062;52.464;16.922;2023-07-13T07:17:37;100377.66;;;29.01;46.65
77110;BME280;66062;52.464;16.922;2023-07-13T07:20:03;100384.53;;;25.48;55.39
77110;BME280;66062;52.464;16.922;2023-07-13T07:22:30;100373.91;;;25.92;55.59
77110;BME280;66062;52.464;16.922;2023-07-13T07:24:56;100378.06;;;25.26;58.08
77110;BME280;66062;52.464;16.922;2023-07-13T07:27:22;100380.34;;;27.63;51.51
77110;BME280;66062;52.464;16.922;2023-07-13T07:29:48;100365.00;;;29.52;45.65
77110;BME280;66062;52.464;16.922;2023-07-13T07:32:14;100363.03;;;29.42;44.47
77110;BME280;66062;52.464;16.922;2023-07-13T07:34:39;100371.44;;;27.34;49.20
77110;BME280;66062;52.464;16.922;2023-07-13T07:37:05;100370.28;;;26.70;50.77
77110;BME280;66062;52.464;16.922;2023-07-13T07:39:31;100364.00;;;27.73;47.07
77110;BME280;66062;52.464;16.922;2023-07-13T07:41:56;100363.25;;;27.56;45.79
77110;BME280;66062;52.464;16.922;2023-07-13T07:44:22;100357.59;;;28.95;43.37
77110;BME280;66062;52.464;16.922;2023-07-13T07:46:47;100368.59;;;27.46;46.71
77110;BME280;66062;52.464;16.922;2023-07-13T07:49:13;100363.72;;;28.01;42.70
77110;BME280;66062;52.464;16.922;2023-07-13T07:51:39;100367.16;;;28.87;41.75
77110;BME280;66062;52.464;16.922;2023-07-13T07:54:05;100361.84;;;30.61;39.16
77110;BME280;66062;52.464;16.922;2023-07-13T07:56:30;100361.28;;;33.18;31.88
77110;BME280;66062;52.464;16.922;2023-07-13T07:58:56;100355.97;;;32.98;31.43
77110;BME280;66062;52.464;16.922;2023-07-13T08:01:22;100367.88;;;31.63;32.46
77110;BME280;66062;52.464;16.922;2023-07-13T08:03:47;100363.56;;;33.77;29.13
77110;BME280;66062;52.464;16.922;2023-07-13T08:06:13;100366.47;;;31.55;32.82
77110;BME280;66062;52.464;16.922;2023-07-13T08:08:38;100372.91;;;31.40;33.56
77110;BME280;66062;52.464;16.922;2023-07-13T08:11:05;100374.75;;;33.25;31.39
77110;BME280;66062;52.464;16.922;2023-07-13T08:13:31;100377.56;;;33.43;30.90
77110;BME280;66062;52.464;16.922;2023-07-13T08:15:56;100374.72;;;32.77;31.87
77110;BME280;66062;52.464;16.922;2023-07-13T08:18:22;100378.47;;;29.53;38.35
77110;BME280;66062;52.464;16.922;2023-07-13T08:20:47;100384.38;;;30.73;36.44
77110;BME280;66062;52.464;16.922;2023-07-13T08:23:13;100371.88;;;33.53;31.29
77110;BME280;66062;52.464;16.922;2023-07-13T08:25:38;100365.13;;;32.36;33.62
77110;BME280;66062;52.464;16.922;2023-07-13T08:28:04;100374.50;;;29.96;37.83
77110;BME280;66062;52.464;16.922;2023-07-13T08:30:29;100370.94;;;30.51;36.00
77110;BME280;66062;52.464;16.922;2023-07-13T08:32:55;100372.84;;;30.10;36.49
77110;BME280;66062;52.464;16.922;2023-07-13T08:35:20;100370.78;;;29.50;38.21
77110;BME280;66062;52.464;16.922;2023-07-13T08:37:46;100380.47;;;28.32;40.57
77110;BME280;66062;52.464;16.922;2023-07-13T08:40:12;100379.19;;;27.15;43.93
77110;BME280;66062;52.464;16.922;2023-07-13T08:42:56;100390.47;;;25.57;48.47
77110;BME280;66062;52.464;16.922;2023-07-13T08:45:54;100388.22;;;25.42;49.49
77110;BME280;66062;52.464;16.922;2023-07-13T08:48:19;100387.16;;;25.43;50.28
77110;BME280;66062;52.464;16.922;2023-07-13T08:53:47;100387.59;;;25.52;49.12
77110;BME280;66062;52.464;16.922;2023-07-13T08:56:20;100380.59;;;24.69;51.51
77110;BME280;66062;52.464;16.922;2023-07-13T08:58:51;100386.75;;;24.30;52.72
77110;BME280;66062;52.464;16.922;2023-07-13T09:04:27;100374.78;;;24.89;51.93
77110;BME280;66062;52.464;16.922;2023-07-13T09:09:45;100378.47;;;24.95;51.83
77110;BME280;66062;52.464;16.922;2023-07-13T09:12:19;100387.25;;;24.97;52.60
77110;BME280;66062;52.464;16.922;2023-07-13T09:14:50;100388.25;;;25.31;51.26
77110;BME280;66062;52.464;16.922;2023-07-13T09:17:33;100376.13;;;25.38;51.25
77110;BME280;66062;52.464;16.922;2023-07-13T09:20:08;100379.91;;;24.62;52.78
77110;BME280;66062;52.464;16.922;2023-07-13T09:22:37;100384.34;;;25.27;50.72
77110;BME280;66062;52.464;16.922;2023-07-13T09:27:58;100387.28;;;26.05;49.65
77110;BME280;66062;52.464;16.922;2023-07-13T09:30:46;100388.66;;;26.36;47.62
77110;BME280;66062;52.464;16.922;2023-07-13T09:33:16;100400.31;;;26.81;46.28
77110;BME280;66062;52.464;16.922;2023-07-13T09:35:41;100391.84;;;27.00;46.00
77110;BME280;66062;52.464;16.922;2023-07-13T09:38:15;100377.78;;;27.35;45.67
77110;BME280;66062;52.464;16.922;2023-07-13T09:44:07;100378.41;;;28.86;41.26
77110;BME280;66062;52.464;16.922;2023-07-13T09:46:38;100368.69;;;30.03;39.05
77110;BME280;66062;52.464;16.922;2023-07-13T09:49:04;100375.25;;;31.72;35.59
77110;BME280;66062;52.464;16.922;2023-07-13T09:51:29;100373.66;;;30.72;37.12
77110;BME280;66062;52.464;16.922;2023-07-13T09:53:55;100374.50;;;31.57;35.48
77110;BME280;66062;52.464;16.922;2023-07-13T09:56:22;100369.34;;;32.57;34.02
77110;BME280;66062;52.464;16.922;2023-07-13T09:58:48;100369.94;;;34.29;31.53
77110;BME280;66062;52.464;16.922;2023-07-13T10:01:14;100368.25;;;34.93;29.97
77110;BME280;66062;52.464;16.922;2023-07-13T10:03:52;100371.53;;;33.79;30.70
77110;BME280;66062;52.464;16.922;2023-07-13T10:06:20;100383.84;;;30.76;35.98
77110;BME280;66062;52.464;16.922;2023-07-13T10:08:50;100379.72;;;30.08;37.23
77110;BME280;66062;52.464;16.922;2023-07-13T10:13:44;100365.03;;;34.26;30.17
77110;BME280;66062;52.464;16.922;2023-07-13T10:16:11;100375.47;;;35.48;28.72
77110;BME280;66062;52.464;16.922;2023-07-13T10:19:22;100380.63;;;36.58;26.87
77110;BME280;66062;52.464;16.922;2023-07-13T10:21:30;100381.97;;;30.51;35.35
77110;BME280;66062;52.464;16.922;2023-07-13T10:24:11;100376.66;;;30.90;34.71
77110;BME280;66062;52.464;16.922;2023-07-13T10:26:46;100383.84;;;32.10;33.42
77110;BME280;66062;52.464;16.922;2023-07-13T10:29:15;100390.97;;;32.84;32.09
77110;BME280;66062;52.464;16.922;2023-07-13T10:31:41;100390.72;;;30.84;36.37
77110;BME280;66062;52.464;16.922;2023-07-13T10:34:11;100391.53;;;30.94;34.65
77110;BME280;66062;52.464;16.922;2023-07-13T10:36:43;100386.16;;;29.51;37.28
77110;BME280;66062;52.464;16.922;2023-07-13T10:39:14;100385.66;;;27.09;42.50
77110;BME280;66062;52.464;16.922;2023-07-13T10:41:41;100390.59;;;28.63;40.41
77110;BME280;66062;52.464;16.922;2023-07-13T10:44:18;100385.22;;;30.08;37.41
77110;BME280;66062;52.464;16.922;2023-07-13T10:46:45;100376.97;;;30.33;37.25
77110;BME280;66062;52.464;16.922;2023-07-13T10:49:11;100378.34;;;30.05;37.80
77110;BME280;66062;52.464;16.922;2023-07-13T10:51:37;100380.09;;;29.44;38.29
77110;BME280;66062;52.464;16.922;2023-07-13T10:56:35;100381.28;;;29.79;36.95
77110;BME280;66062;52.464;16.922;2023-07-13T10:59:09;100382.78;;;30.32;35.81
77110;BME280;66062;52.464;16.922;2023-07-13T11:01:41;100375.78;;;29.73;37.18
77110;BME280;66062;52.464;16.922;2023-07-13T11:04:12;100379.41;;;29.17;37.32
77110;BME280;66062;52.464;16.922;2023-07-13T11:06:39;100371.38;;;29.83;35.76
77110;BME280;66062;52.464;16.922;2023-07-13T11:12:00;100381.09;;;31.56;34.49
77110;BME280;66062;52.464;16.922;2023-07-13T11:14:38;100382.44;;;30.89;34.48
77110;BME280;66062;52.464;16.922;2023-07-13T11:20:20;100392.50;;;27.29;42.71
77110;BME280;66062;52.464;16.922;2023-07-13T11:25:21;100388.47;;;29.17;38.15
77110;BME280;66062;52.464;16.922;2023-07-13T11:30:43;100382.50;;;32.02;28.17
77110;BME280;66062;52.464;16.922;2023-07-13T11:35:59;100368.63;;;32.80;25.82
77110;BME280;66062;52.464;16.922;2023-07-13T11:41:01;100371.44;;;30.74;29.23
77110;BME280;66062;52.464;16.922;2023-07-13T11:43:29;100360.75;;;30.47;30.08
77110;BME280;66062;52.464;16.922;2023-07-13T11:45:54;100365.06;;;31.68;27.04
77110;BME280;66062;52.464;16.922;2023-07-13T11:48:27;100368.03;;;32.20;27.11
77110;BME280;66062;52.464;16.922;2023-07-13T11:50:57;100358.44;;;32.42;26.73
77110;BME280;66062;52.464;16.922;2023-07-13T11:53:26;100358.75;;;32.01;27.24
77110;BME280;66062;52.464;16.922;2023-07-13T11:55:52;100368.66;;;32.07;26.65
77110;BME280;66062;52.464;16.922;2023-07-13T11:58:26;100360.72;;;32.92;26.02
77110;BME280;66062;52.464;16.922;2023-07-13T12:00:55;100365.38;;;32.97;25.66
77110;BME280;66062;52.464;16.922;2023-07-13T12:03:25;100356.78;;;33.46;24.98
77110;BME280;66062;52.464;16.922;2023-07-13T12:06:05;100363.94;;;33.71;24.51
77110;BME280;66062;52.464;16.922;2023-07-13T12:08:32;100357.19;;;34.47;24.48
77110;BME280;66062;52.464;16.922;2023-07-13T12:11:04;100350.53;;;33.17;25.15
77110;BME280;66062;52.464;16.922;2023-07-13T12:13:35;100349.09;;;33.19;25.36
77110;BME280;66062;52.464;16.922;2023-07-13T12:16:02;100348.00;;;33.39;25.23
77110;BME280;66062;52.464;16.922;2023-07-13T12:18:31;100355.19;;;34.15;23.42
77110;BME280;66062;52.464;16.922;2023-07-13T12:20:59;100358.63;;;33.32;23.26
77110;BME280;66062;52.464;16.922;2023-07-13T12:23:30;100363.59;;;34.10;22.62
77110;BME280;66062;52.464;16.922;2023-07-13T12:25:58;100375.25;;;32.50;24.02
77110;BME280;66062;52.464;16.922;2023-07-13T12:28:33;100364.63;;;33.15;23.67
77110;BME280;66062;52.464;16.922;2023-07-13T12:31:07;100361.00;;;34.64;21.58
77110;BME280;66062;52.464;16.922;2023-07-13T12:33:33;100353.06;;;35.04;21.60
77110;BME280;66062;52.464;16.922;2023-07-13T12:36:03;100346.75;;;35.53;20.65
77110;BME280;66062;52.464;16.922;2023-07-13T12:38:31;100349.00;;;35.65;20.18
77110;BME280;66062;52.464;16.922;2023-07-13T12:40:58;100344.16;;;36.06;19.40
77110;BME280;66062;52.464;16.922;2023-07-13T12:43:24;100339.38;;;34.34;21.93
77110;BME280;66062;52.464;16.922;2023-07-13T12:48:22;100351.38;;;30.48;27.16
77110;BME280;66062;52.464;16.922;2023-07-13T12:50:49;100352.84;;;31.20;26.96
77110;BME280;66062;52.464;16.922;2023-07-13T12:53:28;100347.50;;;30.59;26.78
77110;BME280;66062;52.464;16.922;2023-07-13T12:55:59;100355.16;;;29.81;26.64
77110;BME280;66062;52.464;16.922;2023-07-13T12:58:29;100344.50;;;30.10;25.31
77110;BME280;66062;52.464;16.922;2023-07-13T13:00:58;100346.97;;;30.32;23.85
77110;BME280;66062;52.464;16.922;2023-07-13T13:03:33;100344.53;;;31.30;22.79
77110;BME280;66062;52.464;16.922;2023-07-13T13:08:50;100348.50;;;32.07;23.06
77110;BME280;66062;52.464;16.922;2023-07-13T13:11:16;100346.09;;;32.63;22.24
77110;BME280;66062;52.464;16.922;2023-07-13T13:13:42;100338.09;;;33.75;21.07
77110;BME280;66062;52.464;16.922;2023-07-13T13:16:19;100339.13;;;34.63;20.60
77110;BME280;66062;52.464;16.922;2023-07-13T13:18:45;100330.75;;;33.84;19.18
77110;BME280;66062;52.464;16.922;2023-07-13T13:21:11;100333.03;;;33.82;19.20
77110;BME280;66062;52.464;16.922;2023-07-13T13:23:37;100335.81;;;33.59;19.71
77110;BME280;66062;52.464;16.922;2023-07-13T13:26:03;100334.63;;;32.51;21.59